sensor_id;sensor_type;location;lat;lon;timestamp;temperature;humidity
59505;DHT22;45321;53.200;5.814;2024-03-17T00:01:47;8.20;72.40
59505;DHT22;45321;53.200;5.814;2024-03-17T00:04:13;8.20;72.30
59505;DHT22;45321;53.200;5.814;2024-03-17T00:06:38;8.10;72.40
59505;DHT22;45321;53.200;5.814;2024-03-17T00:09:04;8.10;72.10
59505;DHT22;45321;53.200;5.814;2024-03-17T00:11:32;8.10;72.20
59505;DHT22;45321;53.200;5.814;2024-03-17T00:14:03;8.10;72.10
59505;DHT22;45321;53.200;5.814;2024-03-17T00:16:29;8.10;72.20
59505;DHT22;45321;53.200;5.814;2024-03-17T00:18:54;8.00;72.50
59505;DHT22;45321;53.200;5.814;2024-03-17T00:21:21;8.00;72.60
59505;DHT22;45321;53.200;5.814;2024-03-17T00:23:50;8.00;72.60
59505;DHT22;45321;53.200;5.814;2024-03-17T00:26:16;7.90;72.70
59505;DHT22;45321;53.200;5.814;2024-03-17T00:28:42;7.80;72.80
59505;DHT22;45321;53.200;5.814;2024-03-17T00:31:08;7.80;72.80
59505;DHT22;45321;53.200;5.814;2024-03-17T00:33:36;7.80;73.00
59505;DHT22;45321;53.200;5.814;2024-03-17T00:36:02;7.70;72.80
59505;DHT22;45321;53.200;5.814;2024-03-17T00:38:28;7.70;72.90
59505;DHT22;45321;53.200;5.814;2024-03-17T00:40:54;7.70;72.90
59505;DHT22;45321;53.200;5.814;2024-03-17T00:43:20;7.70;72.90
59505;DHT22;45321;53.200;5.814;2024-03-17T00:45:51;7.70;72.90
59505;DHT22;45321;53.200;5.814;2024-03-17T00:48:17;7.70;73.10
59505;DHT22;45321;53.200;5.814;2024-03-17T00:50:43;7.70;73.10
59505;DHT22;45321;53.200;5.814;2024-03-17T00:53:13;7.60;73.20
59505;DHT22;45321;53.200;5.814;2024-03-17T00:55:39;7.50;73.40
59505;DHT22;45321;53.200;5.814;2024-03-17T00:58:05;7.50;73.60
59505;DHT22;45321;53.200;5.814;2024-03-17T01:00:31;7.50;73.70
59505;DHT22;45321;53.200;5.814;2024-03-17T01:02:58;7.50;73.60
59505;DHT22;45321;53.200;5.814;2024-03-17T01:05:24;7.50;73.60
59505;DHT22;45321;53.200;5.814;2024-03-17T01:07:50;7.60;73.80
59505;DHT22;45321;53.200;5.814;2024-03-17T01:10:16;7.60;73.70
59505;DHT22;45321;53.200;5.814;2024-03-17T01:12:41;7.50;73.80
59505;DHT22;45321;53.200;5.814;2024-03-17T01:15:09;7.50;74.00
59505;DHT22;45321;53.200;5.814;2024-03-17T01:17:34;7.50;74.10
59505;DHT22;45321;53.200;5.814;2024-03-17T01:20:00;7.50;74.10
59505;DHT22;45321;53.200;5.814;2024-03-17T01:22:28;7.50;74.10
59505;DHT22;45321;53.200;5.814;2024-03-17T01:24:54;7.40;74.30
59505;DHT22;45321;53.200;5.814;2024-03-17T01:27:20;7.40;74.20
59505;DHT22;45321;53.200;5.814;2024-03-17T01:29:46;7.30;74.20
59505;DHT22;45321;53.200;5.814;2024-03-17T01:32:11;7.30;74.40
59505;DHT22;45321;53.200;5.814;2024-03-17T01:34:38;7.30;74.30
59505;DHT22;45321;53.200;5.814;2024-03-17T01:37:03;7.30;74.70
59505;DHT22;45321;53.200;5.814;2024-03-17T01:39:30;7.30;74.70
59505;DHT22;45321;53.200;5.814;2024-03-17T01:41:57;7.30;74.60
59505;DHT22;45321;53.200;5.814;2024-03-17T01:44:24;7.30;74.70
59505;DHT22;45321;53.200;5.814;2024-03-17T01:46:51;7.30;74.70
59505;DHT22;45321;53.200;5.814;2024-03-17T01:49:17;7.10;74.80
59505;DHT22;45321;53.200;5.814;2024-03-17T01:51:45;7.00;75.10
59505;DHT22;45321;53.200;5.814;2024-03-17T01:54:11;7.00;75.10
59505;DHT22;45321;53.200;5.814;2024-03-17T01:56:37;7.00;75.10
59505;DHT22;45321;53.200;5.814;2024-03-17T01:59:04;7.00;75.40
59505;DHT22;45321;53.200;5.814;2024-03-17T02:01:31;7.00;75.40
59505;DHT22;45321;53.200;5.814;2024-03-17T02:03:57;7.00;75.40
59505;DHT22;45321;53.200;5.814;2024-03-17T02:06:23;7.00;75.10
59505;DHT22;45321;53.200;5.814;2024-03-17T02:08:54;7.00;75.30
59505;DHT22;45321;53.200;5.814;2024-03-17T02:11:32;7.00;75.10
59505;DHT22;45321;53.200;5.814;2024-03-17T02:14:00;7.00;75.00
59505;DHT22;45321;53.200;5.814;2024-03-17T02:16:26;7.00;75.00
59505;DHT22;45321;53.200;5.814;2024-03-17T02:18:56;7.00;74.80
59505;DHT22;45321;53.200;5.814;2024-03-17T02:21:22;7.00;74.70
59505;DHT22;45321;53.200;5.814;2024-03-17T02:23:49;7.00;74.50
59505;DHT22;45321;53.200;5.814;2024-03-17T02:26:15;7.00;74.40
59505;DHT22;45321;53.200;5.814;2024-03-17T02:28:45;7.10;74.30
59505;DHT22;45321;53.200;5.814;2024-03-17T02:31:12;7.10;74.20
59505;DHT22;45321;53.200;5.814;2024-03-17T02:33:38;7.00;74.50
59505;DHT22;45321;53.200;5.814;2024-03-17T02:36:05;7.10;74.50
59505;DHT22;45321;53.200;5.814;2024-03-17T02:38:33;7.00;74.70
59505;DHT22;45321;53.200;5.814;2024-03-17T02:41:18;7.00;74.90
59505;DHT22;45321;53.200;5.814;2024-03-17T02:43:44;7.10;74.90
59505;DHT22;45321;53.200;5.814;2024-03-17T02:46:15;7.10;75.10
59505;DHT22;45321;53.200;5.814;2024-03-17T02:48:41;7.20;75.10
59505;DHT22;45321;53.200;5.814;2024-03-17T02:51:14;7.20;75.00
59505;DHT22;45321;53.200;5.814;2024-03-17T02:53:47;7.20;75.10
59505;DHT22;45321;53.200;5.814;2024-03-17T02:56:15;7.20;75.30
59505;DHT22;45321;53.200;5.814;2024-03-17T02:58:45;7.20;75.40
59505;DHT22;45321;53.200;5.814;2024-03-17T03:01:12;7.10;75.70
59505;DHT22;45321;53.200;5.814;2024-03-17T03:03:39;7.10;75.90
59505;DHT22;45321;53.200;5.814;2024-03-17T03:06:05;7.00;76.10
59505;DHT22;45321;53.200;5.814;2024-03-17T03:08:41;7.00;76.20
59505;DHT22;45321;53.200;5.814;2024-03-17T03:11:08;7.00;76.40
59505;DHT22;45321;53.200;5.814;2024-03-17T03:13:41;7.00;76.60
59505;DHT22;45321;53.200;5.814;2024-03-17T03:16:10;7.10;76.90
59505;DHT22;45321;53.200;5.814;2024-03-17T03:18:36;7.20;76.80
59505;DHT22;45321;53.200;5.814;2024-03-17T03:21:03;7.20;76.80
59505;DHT22;45321;53.200;5.814;2024-03-17T03:23:29;7.20;76.90
59505;DHT22;45321;53.200;5.814;2024-03-17T03:26:00;7.30;76.90
59505;DHT22;45321;53.200;5.814;2024-03-17T03:28:30;7.20;77.20
59505;DHT22;45321;53.200;5.814;2024-03-17T03:30:56;7.20;77.50
59505;DHT22;45321;53.200;5.814;2024-03-17T03:33:22;7.20;77.80
59505;DHT22;45321;53.200;5.814;2024-03-17T03:35:48;7.20;77.90
59505;DHT22;45321;53.200;5.814;2024-03-17T03:38:14;7.10;78.10
59505;DHT22;45321;53.200;5.814;2024-03-17T03:40:41;7.20;78.40
59505;DHT22;45321;53.200;5.814;2024-03-17T03:43:08;7.20;78.30
59505;DHT22;45321;53.200;5.814;2024-03-17T03:45:34;7.20;78.40
59505;DHT22;45321;53.200;5.814;2024-03-17T03:48:00;7.20;78.60
59505;DHT22;45321;53.200;5.814;2024-03-17T03:50:26;7.30;78.40
59505;DHT22;45321;53.200;5.814;2024-03-17T03:52:52;7.30;78.50
59505;DHT22;45321;53.200;5.814;2024-03-17T03:55:19;7.30;78.60
59505;DHT22;45321;53.200;5.814;2024-03-17T03:57:45;7.30;78.40
59505;DHT22;45321;53.200;5.814;2024-03-17T04:00:14;7.30;78.60
59505;DHT22;45321;53.200;5.814;2024-03-17T04:02:52;7.30;79.00
59505;DHT22;45321;53.200;5.814;2024-03-17T04:05:19;7.30;78.70
59505;DHT22;45321;53.200;5.814;2024-03-17T04:07:45;7.30;78.70
59505;DHT22;45321;53.200;5.814;2024-03-17T04:10:12;7.30;78.70
59505;DHT22;45321;53.200;5.814;2024-03-17T04:12:38;7.40;78.70
59505;DHT22;45321;53.200;5.814;2024-03-17T04:15:04;7.30;78.80
59505;DHT22;45321;53.200;5.814;2024-03-17T04:17:35;7.30;79.00
59505;DHT22;45321;53.200;5.814;2024-03-17T04:20:00;7.30;79.30
59505;DHT22;45321;53.200;5.814;2024-03-17T04:22:26;7.30;79.20
59505;DHT22;45321;53.200;5.814;2024-03-17T04:24:52;7.30;79.30
59505;DHT22;45321;53.200;5.814;2024-03-17T04:27:23;7.30;79.00
59505;DHT22;45321;53.200;5.814;2024-03-17T04:29:57;7.30;79.30
59505;DHT22;45321;53.200;5.814;2024-03-17T04:32:23;7.30;79.20
59505;DHT22;45321;53.200;5.814;2024-03-17T04:34:49;7.30;79.30
59505;DHT22;45321;53.200;5.814;2024-03-17T04:37:16;7.20;79.00
59505;DHT22;45321;53.200;5.814;2024-03-17T04:39:45;7.30;79.10
59505;DHT22;45321;53.200;5.814;2024-03-17T04:42:12;7.30;78.90
59505;DHT22;45321;53.200;5.814;2024-03-17T04:44:40;7.20;79.20
59505;DHT22;45321;53.200;5.814;2024-03-17T04:47:06;7.30;79.10
59505;DHT22;45321;53.200;5.814;2024-03-17T04:49:59;7.30;79.40
59505;DHT22;45321;53.200;5.814;2024-03-17T04:52:30;7.20;79.50
59505;DHT22;45321;53.200;5.814;2024-03-17T04:55:34;7.30;79.70
59505;DHT22;45321;53.200;5.814;2024-03-17T04:58:07;7.30;79.40
59505;DHT22;45321;53.200;5.814;2024-03-17T05:00:41;7.30;79.50
59505;DHT22;45321;53.200;5.814;2024-03-17T05:03:10;7.30;79.50
59505;DHT22;45321;53.200;5.814;2024-03-17T05:05:45;7.30;79.50
59505;DHT22;45321;53.200;5.814;2024-03-17T05:08:10;7.30;79.60
59505;DHT22;45321;53.200;5.814;2024-03-17T05:10:37;7.20;79.70
59505;DHT22;45321;53.200;5.814;2024-03-17T05:13:02;7.20;79.90
59505;DHT22;45321;53.200;5.814;2024-03-17T05:15:28;7.20;79.80
59505;DHT22;45321;53.200;5.814;2024-03-17T05:17:54;7.30;79.80
59505;DHT22;45321;53.200;5.814;2024-03-17T05:20:22;7.30;79.60
59505;DHT22;45321;53.200;5.814;2024-03-17T05:22:51;7.30;79.70
59505;DHT22;45321;53.200;5.814;2024-03-17T05:25:16;7.30;79.50
59505;DHT22;45321;53.200;5.814;2024-03-17T05:27:42;7.30;79.50
59505;DHT22;45321;53.200;5.814;2024-03-17T05:30:08;7.30;79.60
59505;DHT22;45321;53.200;5.814;2024-03-17T05:32:34;7.30;79.70
59505;DHT22;45321;53.200;5.814;2024-03-17T05:35:00;7.30;79.80
59505;DHT22;45321;53.200;5.814;2024-03-17T05:37:26;7.20;79.90
59505;DHT22;45321;53.200;5.814;2024-03-17T05:39:53;7.10;79.80
59505;DHT22;45321;53.200;5.814;2024-03-17T05:42:19;7.20;79.80
59505;DHT22;45321;53.200;5.814;2024-03-17T05:44:45;7.20;79.80
59505;DHT22;45321;53.200;5.814;2024-03-17T05:47:19;7.20;79.90
59505;DHT22;45321;53.200;5.814;2024-03-17T05:49:45;7.20;79.70
59505;DHT22;45321;53.200;5.814;2024-03-17T05:52:11;7.20;79.70
59505;DHT22;45321;53.200;5.814;2024-03-17T05:54:37;7.20;79.80
59505;DHT22;45321;53.200;5.814;2024-03-17T05:57:03;7.20;79.80
59505;DHT22;45321;53.200;5.814;2024-03-17T05:59:34;7.20;79.90
59505;DHT22;45321;53.200;5.814;2024-03-17T06:02:00;7.20;79.70
59505;DHT22;45321;53.200;5.814;2024-03-17T06:04:26;7.20;79.70
59505;DHT22;45321;53.200;5.814;2024-03-17T06:06:52;7.30;79.70
59505;DHT22;45321;53.200;5.814;2024-03-17T06:09:17;7.20;79.70
59505;DHT22;45321;53.200;5.814;2024-03-17T06:11:46;7.20;79.60
59505;DHT22;45321;53.200;5.814;2024-03-17T06:14:11;7.20;79.70
59505;DHT22;45321;53.200;5.814;2024-03-17T06:16:38;7.20;79.60
59505;DHT22;45321;53.200;5.814;2024-03-17T06:19:04;7.20;79.60
59505;DHT22;45321;53.200;5.814;2024-03-17T06:21:30;7.20;79.60
59505;DHT22;45321;53.200;5.814;2024-03-17T06:23:56;7.20;79.60
59505;DHT22;45321;53.200;5.814;2024-03-17T06:26:22;7.20;79.80
59505;DHT22;45321;53.200;5.814;2024-03-17T06:28:48;7.20;79.70
59505;DHT22;45321;53.200;5.814;2024-03-17T06:31:14;7.20;79.70
59505;DHT22;45321;53.200;5.814;2024-03-17T06:33:41;7.20;79.60
59505;DHT22;45321;53.200;5.814;2024-03-17T06:36:07;7.20;79.60
59505;DHT22;45321;53.200;5.814;2024-03-17T06:38:33;7.20;79.60
59505;DHT22;45321;53.200;5.814;2024-03-17T06:40:59;7.20;79.50
59505;DHT22;45321;53.200;5.814;2024-03-17T06:43:24;7.30;79.40
59505;DHT22;45321;53.200;5.814;2024-03-17T06:45:54;7.30;79.40
59505;DHT22;45321;53.200;5.814;2024-03-17T06:48:20;7.30;79.60
59505;DHT22;45321;53.200;5.814;2024-03-17T06:50:46;7.30;79.40
59505;DHT22;45321;53.200;5.814;2024-03-17T06:53:12;7.30;79.30
59505;DHT22;45321;53.200;5.814;2024-03-17T06:55:38;7.30;79.30
59505;DHT22;45321;53.200;5.814;2024-03-17T06:58:04;7.30;79.40
59505;DHT22;45321;53.200;5.814;2024-03-17T07:00:29;7.30;79.30
59505;DHT22;45321;53.200;5.814;2024-03-17T07:02:55;7.30;79.30
59505;DHT22;45321;53.200;5.814;2024-03-17T07:05:21;7.40;79.30
59505;DHT22;45321;53.200;5.814;2024-03-17T07:07:47;7.40;79.50
59505;DHT22;45321;53.200;5.814;2024-03-17T07:10:12;7.40;79.00
59505;DHT22;45321;53.200;5.814;2024-03-17T07:12:39;7.50;79.00
59505;DHT22;45321;53.200;5.814;2024-03-17T07:15:05;7.50;79.00
59505;DHT22;45321;53.200;5.814;2024-03-17T07:17:31;7.50;78.80
59505;DHT22;45321;53.200;5.814;2024-03-17T07:19:57;7.60;78.80
59505;DHT22;45321;53.200;5.814;2024-03-17T07:22:23;7.60;78.70
59505;DHT22;45321;53.200;5.814;2024-03-17T07:24:52;7.70;78.70
59505;DHT22;45321;53.200;5.814;2024-03-17T07:27:21;7.70;78.60
59505;DHT22;45321;53.200;5.814;2024-03-17T07:29:47;7.80;78.30
59505;DHT22;45321;53.200;5.814;2024-03-17T07:32:12;7.80;78.30
59505;DHT22;45321;53.200;5.814;2024-03-17T07:34:38;7.80;78.30
59505;DHT22;45321;53.200;5.814;2024-03-17T07:37:04;7.80;78.10
59505;DHT22;45321;53.200;5.814;2024-03-17T07:39:32;7.90;78.10
59505;DHT22;45321;53.200;5.814;2024-03-17T07:42:02;8.00;77.90
59505;DHT22;45321;53.200;5.814;2024-03-17T07:44:28;8.10;77.90
59505;DHT22;45321;53.200;5.814;2024-03-17T07:46:59;8.10;77.80
59505;DHT22;45321;53.200;5.814;2024-03-17T07:49:27;8.20;77.40
59505;DHT22;45321;53.200;5.814;2024-03-17T07:52:03;8.20;77.00
59505;DHT22;45321;53.200;5.814;2024-03-17T07:54:29;8.20;76.70
59505;DHT22;45321;53.200;5.814;2024-03-17T07:56:54;8.20;76.50
59505;DHT22;45321;53.200;5.814;2024-03-17T07:59:20;8.20;76.40
59505;DHT22;45321;53.200;5.814;2024-03-17T08:01:46;8.30;76.40
59505;DHT22;45321;53.200;5.814;2024-03-17T08:04:12;8.30;76.30
59505;DHT22;45321;53.200;5.814;2024-03-17T08:06:41;8.30;76.20
59505;DHT22;45321;53.200;5.814;2024-03-17T08:09:10;8.30;76.10
59505;DHT22;45321;53.200;5.814;2024-03-17T08:11:36;8.40;75.90
59505;DHT22;45321;53.200;5.814;2024-03-17T08:14:02;8.40;76.00
59505;DHT22;45321;53.200;5.814;2024-03-17T08:16:28;8.40;76.00
59505;DHT22;45321;53.200;5.814;2024-03-17T08:18:55;8.40;76.00
59505;DHT22;45321;53.200;5.814;2024-03-17T08:21:21;8.40;75.90
59505;DHT22;45321;53.200;5.814;2024-03-17T08:23:46;8.50;76.10
59505;DHT22;45321;53.200;5.814;2024-03-17T08:26:12;8.50;76.10
59505;DHT22;45321;53.200;5.814;2024-03-17T08:28:38;8.50;75.90
59505;DHT22;45321;53.200;5.814;2024-03-17T08:31:05;8.60;76.00
59505;DHT22;45321;53.200;5.814;2024-03-17T08:33:31;8.60;76.00
59505;DHT22;45321;53.200;5.814;2024-03-17T08:36:04;8.70;76.00
59505;DHT22;45321;53.200;5.814;2024-03-17T08:38:31;8.80;75.90
59505;DHT22;45321;53.200;5.814;2024-03-17T08:41:01;8.80;75.90
59505;DHT22;45321;53.200;5.814;2024-03-17T08:43:27;8.90;75.90
59505;DHT22;45321;53.200;5.814;2024-03-17T08:45:57;9.00;76.20
59505;DHT22;45321;53.200;5.814;2024-03-17T08:48:28;9.10;76.20
59505;DHT22;45321;53.200;5.814;2024-03-17T08:50:54;9.20;75.80
59505;DHT22;45321;53.200;5.814;2024-03-17T08:53:21;9.30;75.70
59505;DHT22;45321;53.200;5.814;2024-03-17T08:55:47;9.40;75.40
59505;DHT22;45321;53.200;5.814;2024-03-17T08:58:13;9.40;75.20
59505;DHT22;45321;53.200;5.814;2024-03-17T09:00:39;9.50;74.90
59505;DHT22;45321;53.200;5.814;2024-03-17T09:03:07;9.50;74.80
59505;DHT22;45321;53.200;5.814;2024-03-17T09:05:36;9.60;74.60
59505;DHT22;45321;53.200;5.814;2024-03-17T09:08:02;9.50;74.70
59505;DHT22;45321;53.200;5.814;2024-03-17T09:10:28;9.50;74.60
59505;DHT22;45321;53.200;5.814;2024-03-17T09:12:54;9.60;74.60
59505;DHT22;45321;53.200;5.814;2024-03-17T09:15:20;9.70;74.30
59505;DHT22;45321;53.200;5.814;2024-03-17T09:17:46;9.70;74.60
59505;DHT22;45321;53.200;5.814;2024-03-17T09:20:13;9.80;74.20
59505;DHT22;45321;53.200;5.814;2024-03-17T09:22:43;9.80;73.90
59505;DHT22;45321;53.200;5.814;2024-03-17T09:25:09;9.90;73.80
59505;DHT22;45321;53.200;5.814;2024-03-17T09:27:35;10.00;74.00
59505;DHT22;45321;53.200;5.814;2024-03-17T09:30:07;10.00;73.70
59505;DHT22;45321;53.200;5.814;2024-03-17T09:32:38;10.10;73.70
59505;DHT22;45321;53.200;5.814;2024-03-17T09:35:05;10.10;73.30
59505;DHT22;45321;53.200;5.814;2024-03-17T09:37:31;10.10;73.70
59505;DHT22;45321;53.200;5.814;2024-03-17T09:40:00;10.10;73.40
59505;DHT22;45321;53.200;5.814;2024-03-17T09:42:26;10.20;73.40
59505;DHT22;45321;53.200;5.814;2024-03-17T09:44:55;10.20;73.40
59505;DHT22;45321;53.200;5.814;2024-03-17T09:47:23;10.20;73.10
59505;DHT22;45321;53.200;5.814;2024-03-17T09:49:50;10.20;72.80
59505;DHT22;45321;53.200;5.814;2024-03-17T09:52:24;10.10;72.80
59505;DHT22;45321;53.200;5.814;2024-03-17T09:55:08;10.10;73.00
59505;DHT22;45321;53.200;5.814;2024-03-17T09:57:36;10.10;73.10
59505;DHT22;45321;53.200;5.814;2024-03-17T10:00:09;10.10;72.80
59505;DHT22;45321;53.200;5.814;2024-03-17T10:02:46;10.10;72.60
59505;DHT22;45321;53.200;5.814;2024-03-17T10:05:24;10.10;72.80
59505;DHT22;45321;53.200;5.814;2024-03-17T10:07:51;10.10;72.90
59505;DHT22;45321;53.200;5.814;2024-03-17T10:10:17;10.20;73.20
59505;DHT22;45321;53.200;5.814;2024-03-17T10:12:44;10.20;73.00
59505;DHT22;45321;53.200;5.814;2024-03-17T10:15:14;10.20;73.10
59505;DHT22;45321;53.200;5.814;2024-03-17T10:17:39;10.20;72.90
59505;DHT22;45321;53.200;5.814;2024-03-17T10:20:12;10.30;72.60
59505;DHT22;45321;53.200;5.814;2024-03-17T10:25:29;10.30;72.30
59505;DHT22;45321;53.200;5.814;2024-03-17T10:27:56;10.30;72.50
59505;DHT22;45321;53.200;5.814;2024-03-17T10:30:23;10.40;72.60
59505;DHT22;45321;53.200;5.814;2024-03-17T10:32:58;10.40;72.50
59505;DHT22;45321;53.200;5.814;2024-03-17T10:35:32;10.50;72.40
59505;DHT22;45321;53.200;5.814;2024-03-17T10:38:00;10.50;72.20
59505;DHT22;45321;53.200;5.814;2024-03-17T10:40:27;10.60;72.40
59505;DHT22;45321;53.200;5.814;2024-03-17T10:42:55;10.60;72.00
59505;DHT22;45321;53.200;5.814;2024-03-17T10:45:21;10.60;71.70
59505;DHT22;45321;53.200;5.814;2024-03-17T10:47:50;10.60;71.80
59505;DHT22;45321;53.200;5.814;2024-03-17T10:50:22;10.60;71.40
59505;DHT22;45321;53.200;5.814;2024-03-17T10:52:50;10.70;71.50
59505;DHT22;45321;53.200;5.814;2024-03-17T10:55:25;10.70;71.80
59505;DHT22;45321;53.200;5.814;2024-03-17T10:57:55;10.80;71.50
59505;DHT22;45321;53.200;5.814;2024-03-17T11:00:24;10.90;71.40
59505;DHT22;45321;53.200;5.814;2024-03-17T11:02:55;11.00;70.70
59505;DHT22;45321;53.200;5.814;2024-03-17T11:07:50;11.20;70.10
59505;DHT22;45321;53.200;5.814;2024-03-17T11:10:20;11.30;69.90
59505;DHT22;45321;53.200;5.814;2024-03-17T11:12:57;11.40;69.10
59505;DHT22;45321;53.200;5.814;2024-03-17T11:17:53;11.70;68.90
59505;DHT22;45321;53.200;5.814;2024-03-17T11:20:28;11.80;68.60
59505;DHT22;45321;53.200;5.814;2024-03-17T11:22:58;11.80;67.80
59505;DHT22;45321;53.200;5.814;2024-03-17T11:25:37;11.90;67.90
59505;DHT22;45321;53.200;5.814;2024-03-17T11:28:04;12.00;67.30
59505;DHT22;45321;53.200;5.814;2024-03-17T11:30:43;12.00;67.30
59505;DHT22;45321;53.200;5.814;2024-03-17T11:39:08;12.40;65.50
59505;DHT22;45321;53.200;5.814;2024-03-17T11:41:48;12.40;65.30
59505;DHT22;45321;53.200;5.814;2024-03-17T11:44:26;12.50;64.80
59505;DHT22;45321;53.200;5.814;2024-03-17T11:46:59;12.50;64.10
59505;DHT22;45321;53.200;5.814;2024-03-17T11:49:39;12.60;63.70
59505;DHT22;45321;53.200;5.814;2024-03-17T11:52:08;12.60;63.50
59505;DHT22;45321;53.200;5.814;2024-03-17T11:54:35;12.70;63.90
59505;DHT22;45321;53.200;5.814;2024-03-17T11:57:03;12.70;62.60
59505;DHT22;45321;53.200;5.814;2024-03-17T11:59:29;12.70;62.90
59505;DHT22;45321;53.200;5.814;2024-03-17T12:01:55;12.70;63.60
59505;DHT22;45321;53.200;5.814;2024-03-17T12:04:23;12.80;62.80
59505;DHT22;45321;53.200;5.814;2024-03-17T12:06:50;12.70;62.10
59505;DHT22;45321;53.200;5.814;2024-03-17T12:09:21;12.80;62.60
59505;DHT22;45321;53.200;5.814;2024-03-17T12:12:20;12.80;62.40
59505;DHT22;45321;53.200;5.814;2024-03-17T12:14:47;12.80;62.50
59505;DHT22;45321;53.200;5.814;2024-03-17T12:17:14;12.80;61.80
59505;DHT22;45321;53.200;5.814;2024-03-17T12:19:41;12.80;62.30
59505;DHT22;45321;53.200;5.814;2024-03-17T12:22:18;12.80;62.30
59505;DHT22;45321;53.200;5.814;2024-03-17T12:24:55;12.90;62.20
59505;DHT22;45321;53.200;5.814;2024-03-17T12:27:23;13.00;61.70
59505;DHT22;45321;53.200;5.814;2024-03-17T12:29:53;13.00;61.80
59505;DHT22;45321;53.200;5.814;2024-03-17T12:32:21;13.00;61.30
59505;DHT22;45321;53.200;5.814;2024-03-17T12:34:51;13.10;61.10
59505;DHT22;45321;53.200;5.814;2024-03-17T12:37:21;13.10;60.70
59505;DHT22;45321;53.200;5.814;2024-03-17T12:39:48;13.30;61.40
59505;DHT22;45321;53.200;5.814;2024-03-17T12:42:25;13.30;60.90
59505;DHT22;45321;53.200;5.814;2024-03-17T12:45:01;13.30;60.80
59505;DHT22;45321;53.200;5.814;2024-03-17T12:47:31;13.30;60.60
59505;DHT22;45321;53.200;5.814;2024-03-17T12:49:59;13.20;60.80
59505;DHT22;45321;53.200;5.814;2024-03-17T12:55:02;13.30;60.60
59505;DHT22;45321;53.200;5.814;2024-03-17T12:57:48;13.30;60.80
59505;DHT22;45321;53.200;5.814;2024-03-17T13:00:32;13.20;61.10
59505;DHT22;45321;53.200;5.814;2024-03-17T13:03:05;13.20;60.60
59505;DHT22;45321;53.200;5.814;2024-03-17T13:05:32;13.10;61.00
59505;DHT22;45321;53.200;5.814;2024-03-17T13:07:58;13.00;61.20
59505;DHT22;45321;53.200;5.814;2024-03-17T13:10:25;12.90;61.30
59505;DHT22;45321;53.200;5.814;2024-03-17T13:13:04;12.90;61.30
59505;DHT22;45321;53.200;5.814;2024-03-17T13:15:31;13.00;62.00
59505;DHT22;45321;53.200;5.814;2024-03-17T13:18:00;13.00;61.70
59505;DHT22;45321;53.200;5.814;2024-03-17T13:20:29;13.00;62.10
59505;DHT22;45321;53.200;5.814;2024-03-17T13:22:56;13.00;61.30
59505;DHT22;45321;53.200;5.814;2024-03-17T13:25:24;13.00;61.40
59505;DHT22;45321;53.200;5.814;2024-03-17T13:27:52;13.00;60.90
59505;DHT22;45321;53.200;5.814;2024-03-17T13:30:20;12.90;60.90
59505;DHT22;45321;53.200;5.814;2024-03-17T13:32:50;12.90;61.20
59505;DHT22;45321;53.200;5.814;2024-03-17T13:35:23;12.90;61.10
59505;DHT22;45321;53.200;5.814;2024-03-17T13:37:50;12.90;61.20
59505;DHT22;45321;53.200;5.814;2024-03-17T13:40:17;12.80;60.50
59505;DHT22;45321;53.200;5.814;2024-03-17T13:42:49;12.80;60.60
59505;DHT22;45321;53.200;5.814;2024-03-17T13:45:16;12.80;60.80
59505;DHT22;45321;53.200;5.814;2024-03-17T13:47:51;12.90;60.60
59505;DHT22;45321;53.200;5.814;2024-03-17T13:50:17;12.80;60.50
59505;DHT22;45321;53.200;5.814;2024-03-17T13:52:43;12.80;60.90
59505;DHT22;45321;53.200;5.814;2024-03-17T13:55:18;12.80;61.00
59505;DHT22;45321;53.200;5.814;2024-03-17T13:57:46;12.80;61.30
59505;DHT22;45321;53.200;5.814;2024-03-17T14:00:13;12.80;61.40
59505;DHT22;45321;53.200;5.814;2024-03-17T14:02:46;12.90;61.40
59505;DHT22;45321;53.200;5.814;2024-03-17T14:05:14;12.90;61.50
59505;DHT22;45321;53.200;5.814;2024-03-17T14:07:41;12.80;61.60
59505;DHT22;45321;53.200;5.814;2024-03-17T14:10:07;12.80;61.80
59505;DHT22;45321;53.200;5.814;2024-03-17T14:12:34;12.80;61.30
59505;DHT22;45321;53.200;5.814;2024-03-17T14:15:01;12.80;61.20
59505;DHT22;45321;53.200;5.814;2024-03-17T14:17:26;12.80;61.30
59505;DHT22;45321;53.200;5.814;2024-03-17T14:19:52;12.80;60.90
59505;DHT22;45321;53.200;5.814;2024-03-17T14:22:18;12.80;61.00
59505;DHT22;45321;53.200;5.814;2024-03-17T14:24:44;12.80;61.20
59505;DHT22;45321;53.200;5.814;2024-03-17T14:27:12;12.80;61.30
59505;DHT22;45321;53.200;5.814;2024-03-17T14:29:38;12.90;61.40
59505;DHT22;45321;53.200;5.814;2024-03-17T14:32:06;12.90;61.40
59505;DHT22;45321;53.200;5.814;2024-03-17T14:34:31;12.90;61.10
59505;DHT22;45321;53.200;5.814;2024-03-17T14:37:01;12.90;61.10
59505;DHT22;45321;53.200;5.814;2024-03-17T14:39:28;12.90;61.20
59505;DHT22;45321;53.200;5.814;2024-03-17T14:42:00;13.00;61.30
59505;DHT22;45321;53.200;5.814;2024-03-17T14:44:30;13.00;61.40
59505;DHT22;45321;53.200;5.814;2024-03-17T14:46:58;13.00;61.50
59505;DHT22;45321;53.200;5.814;2024-03-17T14:49:29;13.10;60.90
59505;DHT22;45321;53.200;5.814;2024-03-17T14:51:55;13.00;60.30
59505;DHT22;45321;53.200;5.814;2024-03-17T14:54:22;12.90;60.20
59505;DHT22;45321;53.200;5.814;2024-03-17T14:56:48;12.90;60.50
59505;DHT22;45321;53.200;5.814;2024-03-17T14:59:14;12.90;60.60
59505;DHT22;45321;53.200;5.814;2024-03-17T15:01:43;12.90;60.90
59505;DHT22;45321;53.200;5.814;2024-03-17T15:04:08;13.00;61.20
59505;DHT22;45321;53.200;5.814;2024-03-17T15:06:34;12.90;60.80
59505;DHT22;45321;53.200;5.814;2024-03-17T15:09:01;12.90;60.30
59505;DHT22;45321;53.200;5.814;2024-03-17T15:11:28;12.80;60.70
59505;DHT22;45321;53.200;5.814;2024-03-17T15:13:54;12.90;61.10
59505;DHT22;45321;53.200;5.814;2024-03-17T15:16:19;12.90;60.90
59505;DHT22;45321;53.200;5.814;2024-03-17T15:18:46;12.80;60.80
59505;DHT22;45321;53.200;5.814;2024-03-17T15:21:12;12.80;60.60
59505;DHT22;45321;53.200;5.814;2024-03-17T15:23:38;12.80;60.20
59505;DHT22;45321;53.200;5.814;2024-03-17T15:26:06;12.80;60.90
59505;DHT22;45321;53.200;5.814;2024-03-17T15:28:43;12.80;61.20
59505;DHT22;45321;53.200;5.814;2024-03-17T15:31:10;12.80;61.40
59505;DHT22;45321;53.200;5.814;2024-03-17T15:33:37;12.80;61.00
59505;DHT22;45321;53.200;5.814;2024-03-17T15:36:04;12.80;61.40
59505;DHT22;45321;53.200;5.814;2024-03-17T15:38:34;12.80;61.70
59505;DHT22;45321;53.200;5.814;2024-03-17T15:41:04;12.80;61.90
59505;DHT22;45321;53.200;5.814;2024-03-17T15:43:42;12.80;62.20
59505;DHT22;45321;53.200;5.814;2024-03-17T15:46:15;12.80;62.30
59505;DHT22;45321;53.200;5.814;2024-03-17T15:48:42;12.70;62.20
59505;DHT22;45321;53.200;5.814;2024-03-17T15:51:07;12.70;62.40
59505;DHT22;45321;53.200;5.814;2024-03-17T15:53:33;12.70;62.70
59505;DHT22;45321;53.200;5.814;2024-03-17T15:56:00;12.70;62.70
59505;DHT22;45321;53.200;5.814;2024-03-17T15:58:28;12.60;62.70
59505;DHT22;45321;53.200;5.814;2024-03-17T16:00:55;12.60;62.90
59505;DHT22;45321;53.200;5.814;2024-03-17T16:03:21;12.60;62.80